Time;durP1;ratioP1;P1;durP2;ratioP2;P2;SDS_P1;SDS_P2;PMS_P1;PMS_P2;Temp;Humidity;BMP_temperature;BMP_pressure;BME280_temperature;BME280_humidity;BME280_pressure;Samples;Min_cycle;Max_cycle;Signal;HPM_P1;HPM_P2
2022/01/16 00:06:42;;;;;;;96.60;62.28;;;3.00;99.90;;;;;;4998302;28;20722;-87
2022/01/16 00:09:36;;;;;;;101.50;68.93;;;3.00;99.90;;;;;;5008872;28;20653;-87
2022/01/16 00:12:43;;;;;;;;;;;;;;;;;;;;;
2022/01/16 00:18:49;;;;;;;96.75;59.25;;;3.10;99.90;;;;;;5017151;28;20534;-87
2022/01/16 00:21:46;;;;;;;95.25;61.83;;;3.10;99.90;;;;;;4993767;28;20174;-87
2022/01/16 00:24:44;;;;;;;96.00;61.55;;;3.10;99.90;;;;;;5000042;28;20239;-87
2022/01/16 00:27:34;;;;;;;101.43;58.75;;;3.10;99.90;;;;;;4998981;28;20545;-87
2022/01/16 00:30:07;;;;;;;91.72;54.60;;;3.10;99.90;;;;;;5016585;28;20182;-87
2022/01/16 00:32:46;;;;;;;95.43;62.50;;;3.10;99.90;;;;;;4998824;28;20257;-87
2022/01/16 00:35:59;;;;;;;101.82;61.10;;;3.10;99.90;;;;;;5016118;28;20194;-87
2022/01/16 00:39:09;;;;;;;92.10;49.50;;;3.10;99.90;;;;;;4941213;28;20301;-87
2022/01/16 00:45:15;;;;;;;92.85;51.80;;;3.20;99.90;;;;;;4956184;28;20207;-87
2022/01/16 00:48:14;;;;;;;91.82;50.70;;;3.20;99.90;;;;;;4994301;28;20182;-87
2022/01/16 00:51:09;;;;;;;95.57;57.25;;;3.20;99.90;;;;;;4999564;28;20264;-87
2022/01/16 00:54:06;;;;;;;;;;;;;;;;;;;;;
2022/01/16 00:56:44;;;;;;;87.95;46.95;;;3.30;99.90;;;;;;5017283;28;20154;-87
2022/01/16 01:03:11;;;;;;;;;;;;;;;;;;;;;
2022/01/16 01:05:44;;;;;;;95.85;51.13;;;3.20;99.90;;;;;;5015078;28;20199;-87
2022/01/16 01:08:17;;;;;;;95.93;62.88;;;3.20;99.90;;;;;;4998574;28;20174;-87
2022/01/16 01:11:09;;;;;;;93.45;56.40;;;3.10;99.90;;;;;;4998560;28;20197;-87
2022/01/16 01:16:49;;;;;;;95.90;58.88;;;3.00;99.90;;;;;;5042604;22;20328;-87
2022/01/16 01:19:33;;;;;;;96.45;58.60;;;3.00;99.90;;;;;;5035459;28;20247;-87
2022/01/16 01:22:18;;;;;;;92.05;54.75;;;3.10;99.90;;;;;;5017022;28;20537;-87
2022/01/16 01:25:04;;;;;;;91.53;52.60;;;3.20;99.90;;;;;;5017958;28;20534;-87
2022/01/16 01:27:50;;;;;;;89.13;50.20;;;3.30;99.90;;;;;;5018312;28;20169;-87
2022/01/16 01:30:23;;;;;;;93.22;53.67;;;3.20;99.90;;;;;;5014744;28;20208;-87
2022/01/16 01:33:00;;;;;;;97.25;58.17;;;3.10;99.90;;;;;;5035423;28;20160;-87
2022/01/16 01:35:50;;;;;;;94.68;57.10;;;3.10;99.90;;;;;;5017756;28;20193;-87
2022/01/16 01:38:38;;;;;;;99.28;61.65;;;3.10;99.90;;;;;;5034973;28;20161;-87
2022/01/16 01:41:29;;;;;;;96.63;61.55;;;3.00;99.90;;;;;;5035741;28;20169;-87
2022/01/16 01:57:05;;;;;;;;;;;;;;;;;;;;;
2022/01/16 01:59:42;;;;;;;92.97;59.50;;;3.10;99.90;;;;;;5074773;28;20176;-87
2022/01/16 02:02:27;;;;;;;95.63;59.58;;;3.10;99.90;;;;;;5056642;28;20249;-87
2022/01/16 02:05:13;;;;;;;91.55;60.58;;;3.10;99.90;;;;;;5046076;28;20227;-87
2022/01/16 02:07:54;;;;;;;96.10;56.65;;;3.10;99.90;;;;;;5054792;28;20218;-87
2022/01/16 02:11:28;;;;;;;;;;;;;;;;;;;;;
2022/01/16 02:29:08;;;;;;;89.10;45.53;;;3.10;99.90;;;;;;5054618;28;20268;-87
2022/01/16 02:34:47;;;;;;;101.45;66.68;;;3.20;99.90;;;;;;5033140;28;20224;-87
2022/01/16 02:37:27;;;;;;;90.85;48.17;;;3.10;99.90;;;;;;5036225;28;20574;-87
2022/01/16 02:40:07;;;;;;;101.20;62.70;;;3.10;99.90;;;;;;5053898;28;20145;-87
2022/01/16 02:42:41;;;;;;;100.18;66.60;;;3.00;99.90;;;;;;5036776;28;20168;-87
2022/01/16 02:45:44;;;;;;;93.65;55.33;;;3.00;99.90;;;;;;5035867;28;20274;-87
2022/01/16 02:48:27;;;;;;;91.88;50.33;;;3.00;99.90;;;;;;5035820;28;20187;-87
2022/01/16 02:52:41;;;;;;;95.10;53.33;;;3.10;99.90;;;;;;5036096;28;20191;-87
2022/01/16 02:55:09;;;;;;;92.07;44.03;;;3.00;99.90;;;;;;5030164;28;20203;-87
2022/01/16 02:57:36;;;;;;;90.63;46.10;;;3.00;99.90;;;;;;5015244;28;20241;-87
2022/01/16 03:00:14;;;;;;;97.72;60.42;;;3.00;99.90;;;;;;5053948;28;20172;-87
2022/01/16 03:02:56;;;;;;;89.10;47.58;;;3.00;99.90;;;;;;5039580;28;20226;-87
2022/01/16 03:05:31;;;;;;;90.75;49.45;;;3.10;99.90;;;;;;5058417;28;20195;-88
2022/01/16 03:07:59;;;;;;;94.43;56.85;;;3.10;99.90;;;;;;5057859;28;20224;-87
2022/01/16 03:14:01;;;;;;;95.40;54.72;;;3.10;99.90;;;;;;5041451;28;20192;-87
2022/01/16 03:16:52;;;;;;;92.30;50.35;;;3.10;99.90;;;;;;5016752;28;20169;-87
2022/01/16 03:22:36;;;;;;;90.25;48.22;;;3.30;99.90;;;;;;5058054;28;20627;-87
2022/01/16 03:25:05;;;;;;;93.82;45.63;;;3.30;99.90;;;;;;5038844;28;20188;-87
2022/01/16 03:27:38;;;;;;;93.97;48.65;;;3.30;99.90;;;;;;5039847;28;20168;-87
2022/01/16 03:30:15;;;;;;;94.45;50.40;;;3.40;99.90;;;;;;5039380;28;20207;-87
2022/01/16 03:32:53;;;;;;;96.57;52.75;;;3.40;99.90;;;;;;5039306;28;20187;-87
2022/01/16 03:35:48;;;;;;;90.28;46.13;;;3.30;99.90;;;;;;5039163;28;20382;-87
2022/01/16 03:38:37;;;;;;;91.90;48.38;;;3.30;99.90;;;;;;5037220;28;20275;-88
2022/01/16 03:41:09;;;;;;;90.70;48.42;;;3.30;99.90;;;;;;5039516;28;20214;-87
2022/01/16 03:46:58;;;;;;;92.07;45.08;;;3.40;99.90;;;;;;5057266;28;20639;-87
2022/01/16 03:49:34;;;;;;;93.70;53.35;;;3.40;99.90;;;;;;5056664;28;20191;-87
2022/01/16 03:52:29;;;;;;;93.07;52.25;;;3.40;99.90;;;;;;5039786;28;20171;-87
2022/01/16 03:55:42;;;;;;;89.20;41.50;;;3.40;99.90;;;;;;5039172;28;20230;-87
2022/01/16 03:58:32;;;;;;;86.35;39.80;;;3.50;99.90;;;;;;5057477;28;20177;-87
2022/01/16 04:01:04;;;;;;;92.10;48.65;;;3.40;99.90;;;;;;5038857;28;20610;-87
2022/01/16 04:03:53;;;;;;;92.00;52.58;;;3.40;99.90;;;;;;5056944;28;20188;-87
2022/01/16 04:06:22;;;;;;;95.30;50.92;;;3.40;99.90;;;;;;5038726;28;20203;-88
2022/01/16 04:09:14;;;;;;;95.43;51.28;;;3.50;99.90;;;;;;5038434;28;20207;-87
2022/01/16 04:11:49;;;;;;;102.38;67.70;;;3.40;99.90;;;;;;5039144;28;20207;-87
2022/01/16 04:17:17;;;;;;;87.53;43.35;;;3.30;99.90;;;;;;5056711;28;20152;-87
2022/01/16 04:20:20;;;;;;;;;;;;;;;;;;;;;
2022/01/16 04:22:57;;;;;;;91.28;53.55;;;3.30;99.90;;;;;;5056826;28;20174;-87
2022/01/16 04:25:29;;;;;;;87.30;49.95;;;3.20;99.90;;;;;;5039098;28;20617;-87
2022/01/16 04:27:58;;;;;;;101.65;65.13;;;3.20;99.90;;;;;;5056384;28;20219;-87
2022/01/16 04:31:16;;;;;;;92.45;56.35;;;3.20;99.90;;;;;;5056971;28;20234;-87
2022/01/16 04:33:57;;;;;;;85.88;41.63;;;3.40;99.90;;;;;;5024591;28;20183;-88
2022/01/16 04:36:32;;;;;;;94.95;58.28;;;3.40;99.90;;;;;;5039084;28;20263;-87
2022/01/16 04:39:12;;;;;;;;;;;;;;;;;;;;;
2022/01/16 04:45:13;;;;;;;92.63;50.80;;;3.20;99.90;;;;;;5056338;28;20262;-87
2022/01/16 04:47:42;;;;;;;90.97;47.63;;;3.20;99.90;;;;;;5056336;28;20168;-87
2022/01/16 04:50:45;;;;;;;;;;;;;;;;;;;;;
2022/01/16 04:53:43;;;;;;;96.20;51.30;;;3.10;99.90;;;;;;5054275;28;20180;-87
2022/01/16 04:56:16;;;;;;;86.60;41.92;;;3.10;99.90;;;;;;5037808;28;20658;-87
2022/01/16 04:58:57;;;;;;;91.40;52.53;;;3.10;99.90;;;;;;5037581;28;20188;-87
2022/01/16 05:01:43;;;;;;;89.95;50.45;;;3.10;99.90;;;;;;5037473;28;20251;-87
2022/01/16 05:04:21;;;;;;;93.28;53.45;;;3.10;99.90;;;;;;5038072;28;20255;-87
2022/01/16 05:07:01;;;;;;;95.40;64.38;;;3.20;99.90;;;;;;5056333;28;20152;-87
2022/01/16 05:09:31;;;;;;;89.03;51.42;;;3.20;99.90;;;;;;5038055;28;20203;-87
2022/01/16 05:12:00;;;;;;;91.03;54.92;;;3.20;99.90;;;;;;5055760;28;20161;-88
2022/01/16 05:17:27;;;;;;;100.18;65.63;;;3.20;99.90;;;;;;5056021;28;20623;-87
2022/01/16 05:19:56;;;;;;;92.55;58.83;;;3.20;99.90;;;;;;5055616;28;20206;-87
2022/01/16 05:22:31;;;;;;;93.60;57.78;;;3.20;99.90;;;;;;5038094;28;20172;-87
2022/01/16 05:25:29;;;;;;;94.30;56.15;;;3.30;99.90;;;;;;5037369;28;20195;-87
2022/01/16 05:27:58;;;;;;;92.85;49.47;;;3.30;99.90;;;;;;5040788;28;20169;-87
2022/01/16 05:33:16;;;;;;;92.60;46.63;;;3.40;99.90;;;;;;5033252;28;20260;-87
2022/01/16 05:39:20;;;;;;;92.72;47.22;;;3.30;99.90;;;;;;5032864;28;20185;-87
2022/01/16 05:42:19;;;;;;;99.68;58.45;;;3.40;99.90;;;;;;5033815;28;20185;-87
2022/01/16 05:48:10;;;;;;;98.78;51.05;;;3.40;99.90;;;;;;4630150;22;20265;-88
2022/01/16 05:50:56;;;;;;;112.88;57.20;;;3.50;99.90;;;;;;5037677;28;20195;-87
2022/01/16 05:54:24;;;;;;;125.78;57.30;;;3.50;99.90;;;;;;5041631;28;20238;-87
2022/01/16 05:57:02;;;;;;;113.97;53.08;;;3.50;99.90;;;;;;5008917;28;20184;-87
2022/01/16 05:59:38;;;;;;;117.70;67.18;;;3.60;99.90;;;;;;5035514;28;20195;-88
2022/01/16 06:02:17;;;;;;;;;;;;;;;;;;;;;
2022/01/16 06:04:52;;;;;;;118.97;58.35;;;3.60;99.90;;;;;;5035650;28;20189;-87
2022/01/16 06:07:50;;;;;;;;;;;;;;;;;;;;;
2022/01/16 06:10:24;;;;;;;109.47;45.33;;;3.60;99.90;;;;;;5035333;28;20195;-87
2022/01/16 06:12:59;;;;;;;117.45;61.50;;;3.70;99.90;;;;;;5035256;28;20613;-88
2022/01/16 06:15:40;;;;;;;125.80;65.90;;;3.70;99.90;;;;;;5018154;28;20192;-87
2022/01/16 06:18:28;;;;;;;115.97;60.75;;;3.60;99.90;;;;;;5018694;28;20196;-88
2022/01/16 06:21:17;;;;;;;124.00;62.70;;;3.70;99.90;;;;;;5034248;28;20161;-87
2022/01/16 06:24:10;;;;;;;118.88;62.58;;;3.70;99.90;;;;;;5014512;28;20535;-87
2022/01/16 06:26:42;;;;;;;116.65;54.63;;;3.70;99.90;;;;;;5034105;28;20181;-87
2022/01/16 06:29:13;;;;;;;121.72;71.20;;;3.70;99.90;;;;;;5017181;28;20611;-87
2022/01/16 06:31:48;;;;;;;125.95;71.72;;;3.60;99.90;;;;;;5034488;28;20149;-87
2022/01/16 06:34:23;;;;;;;123.88;85.18;;;3.70;99.90;;;;;;5016754;28;20227;-87
2022/01/16 06:37:05;;;;;;;124.97;80.20;;;3.60;99.90;;;;;;5017117;28;20192;-87
2022/01/16 06:39:34;;;;;;;128.88;78.18;;;3.70;99.90;;;;;;5034356;28;20240;-87
2022/01/16 06:42:12;;;;;;;129.02;81.85;;;3.60;99.90;;;;;;5015345;28;20177;-86
2022/01/16 06:45:00;;;;;;;135.23;91.82;;;3.70;99.90;;;;;;5034353;28;20188;-87
2022/01/16 06:47:56;;;;;;;;;;;;;;;;;;;;;
2022/01/16 06:50:40;;;;;;;124.38;79.45;;;3.60;99.90;;;;;;5034472;28;20206;-87
2022/01/16 06:56:43;;;;;;;120.03;66.78;;;3.60;99.90;;;;;;5033603;28;20211;-86
2022/01/16 06:59:34;;;;;;;131.40;82.60;;;3.60;99.90;;;;;;5015974;28;20169;-87
2022/01/16 07:02:18;;;;;;;126.72;73.13;;;3.60;99.90;;;;;;5033222;28;20181;-87
2022/01/16 07:05:08;;;;;;;121.00;66.53;;;3.70;99.90;;;;;;5015067;28;20198;-87
2022/01/16 07:07:56;;;;;;;120.35;62.42;;;3.70;99.90;;;;;;5033348;28;20169;-87
2022/01/16 07:10:24;;;;;;;120.72;65.15;;;3.70;99.90;;;;;;5015205;28;20220;-87
2022/01/16 07:13:01;;;;;;;119.70;68.30;;;3.70;99.90;;;;;;5015803;28;20252;-87
2022/01/16 07:15:47;;;;;;;124.93;70.75;;;3.70;99.90;;;;;;5016038;28;20185;-87
2022/01/16 07:18:31;;;;;;;130.60;78.47;;;3.80;99.90;;;;;;5033997;28;20169;-86
2022/01/16 07:21:18;;;;;;;117.78;69.13;;;3.80;99.90;;;;;;5033133;28;20196;-87
2022/01/16 07:24:35;;;;;;;120.97;66.63;;;3.90;99.90;;;;;;5016138;28;20166;-87
2022/01/16 07:35:39;;;;;;;110.75;53.58;;;4.00;99.90;;;;;;5021126;22;20231;-90
2022/01/16 07:38:11;;;;;;;120.97;61.50;;;4.10;99.90;;;;;;5030132;28;20176;-89
2022/01/16 07:40:37;;;;;;;118.88;65.25;;;4.00;99.90;;;;;;5035115;28;20169;-89
2022/01/16 07:43:42;;;;;;;120.38;60.42;;;4.00;99.90;;;;;;5034766;28;20164;-89
2022/01/16 07:46:22;;;;;;;124.93;63.22;;;4.10;99.90;;;;;;5052425;28;20176;-89
2022/01/16 07:48:54;;;;;;;118.05;60.08;;;4.10;99.90;;;;;;5037593;28;20196;-89
2022/01/16 07:52:29;;;;;;;111.05;51.65;;;4.10;99.90;;;;;;5056292;28;20594;-89
2022/01/16 07:55:18;;;;;;;106.63;40.80;;;4.20;99.90;;;;;;4994222;28;20670;-89
2022/01/16 07:58:43;;;;;;;;;;;;;;;;;;;;;
2022/01/16 08:05:23;;;;;;;110.82;39.30;;;4.20;99.90;;;;;;5125399;22;20216;-89
2022/01/16 08:08:56;;;;;;;;;;;;;;;;;;;;;
2022/01/16 08:12:19;;;;;;;;;;;;;;;;;;;;;
2022/01/16 08:15:40;;;;;;;;;;;;;;;;;;;;;
2022/01/16 08:22:09;;;;;;;108.30;43.65;;;4.40;99.90;;;;;;4899002;29;20205;-87
2022/01/16 08:30:38;;;;;;;113.90;47.28;;;4.40;99.90;;;;;;5054467;28;20216;-88
2022/01/16 08:33:15;;;;;;;113.20;44.20;;;4.50;99.90;;;;;;5038943;28;20172;-88
2022/01/16 08:36:09;;;;;;;114.65;51.50;;;4.50;99.90;;;;;;5018266;28;20211;-88
2022/01/16 08:39:24;;;;;;;;;;;;;;;;;;;;;
2022/01/16 08:42:45;;;;;;;116.30;53.38;;;4.50;99.90;;;;;;4998739;28;20177;-87
2022/01/16 08:46:13;;;;;;;120.00;53.42;;;4.50;99.90;;;;;;5078149;22;20248;-88
2022/01/16 08:48:40;;;;;;;112.68;48.47;;;4.60;99.90;;;;;;5048062;28;20192;-89
2022/01/16 08:51:31;;;;;;;115.72;52.17;;;4.60;99.90;;;;;;5039054;28;20192;-88
2022/01/16 08:57:51;;;;;;;115.18;58.38;;;4.60;99.90;;;;;;5045007;28;20191;-88
2022/01/16 09:01:01;;;;;;;116.93;59.40;;;4.60;99.90;;;;;;4958746;28;20307;-88
2022/01/16 09:09:08;;;;;;;110.13;48.97;;;4.70;99.90;;;;;;5044806;28;20230;-88
2022/01/16 09:12:33;;;;;;;;;;;;;;;;;;;;;
2022/01/16 09:18:53;;;;;;;112.85;46.80;;;4.80;99.90;;;;;;4993435;28;20166;-88
2022/01/16 09:21:39;;;;;;;110.05;44.58;;;4.80;99.90;;;;;;5050117;28;20229;-88
2022/01/16 09:30:34;;;;;;;109.00;38.47;;;4.80;99.90;;;;;;5054786;28;20220;-88
2022/01/16 09:33:22;;;;;;;112.40;45.45;;;4.80;99.90;;;;;;5037845;28;20175;-88
2022/01/16 09:36:44;;;;;;;;;;;;;;;;;;;;;
2022/01/16 09:59:20;;;;;;;105.68;37.25;;;5.10;99.90;;;;;;5420474;22;20224;-88
2022/01/16 10:05:55;;;;;;;;;;;;;;;;;;;;;
2022/01/16 10:19:02;;;;;;;;;;;;;;;;;;;;;
2022/01/16 10:22:17;;;;;;;103.10;37.45;;;5.50;99.90;;;;;;5046195;28;20211;-87
2022/01/16 10:28:57;;;;;;;98.22;27.75;;;5.60;99.90;;;;;;4991363;28;20519;-87
2022/01/16 10:32:33;;;;;;;103.60;34.95;;;5.60;99.90;;;;;;4993013;28;20709;-87
2022/01/16 10:38:17;;;;;;;100.55;39.92;;;5.60;99.90;;;;;;5052549;28;20687;-88
2022/01/16 10:41:18;;;;;;;104.53;42.38;;;5.60;99.90;;;;;;4915603;29;20189;-88
2022/01/16 10:44:44;;;;;;;;;;;;;;;;;;;;;
2022/01/16 10:47:59;;;;;;;104.95;35.22;;;5.60;99.90;;;;;;4890291;29;20534;-87
2022/01/16 10:51:21;;;;;;;;;;;;;;;;;;;;;
2022/01/16 11:09:06;;;;;;;104.38;41.70;;;5.60;99.90;;;;;;4786859;30;20185;-88
2022/01/16 11:42:36;;;;;;;105.68;45.63;;;5.90;99.90;;;;;;5076963;22;20227;-89
2022/01/16 12:45:25;;;;;;;102.03;42.30;;;6.40;99.90;;;;;;4975817;28;20310;-90
2022/01/16 13:01:57;;;;;;;93.60;27.55;;;6.50;99.90;;;;;;4862714;29;20540;-90
2022/01/16 13:08:55;;;;;;;90.30;23.83;;;6.40;99.90;;;;;;4851108;29;20655;-90
2022/01/16 13:15:50;;;;;;;96.57;24.67;;;6.30;99.90;;;;;;5029774;22;20236;-89
2022/01/16 13:22:26;;;;;;;92.85;25.55;;;6.40;99.90;;;;;;4955882;28;20647;-89
2022/01/16 13:28:36;;;;;;;88.68;24.35;;;6.30;99.90;;;;;;5216989;22;20583;-84
2022/01/16 13:31:08;;;;;;;97.00;31.37;;;6.30;99.90;;;;;;5060789;28;20200;-85
2022/01/16 13:33:34;;;;;;;99.22;34.55;;;6.30;99.90;;;;;;5060658;28;20145;-84
2022/01/16 13:35:59;;;;;;;92.90;32.73;;;6.20;99.90;;;;;;5022685;28;20180;-85
2022/01/16 13:38:36;;;;;;;96.63;31.00;;;6.30;99.90;;;;;;5040190;28;20419;-85
2022/01/16 13:41:11;;;;;;;94.13;24.90;;;6.30;99.90;;;;;;5022710;28;20790;-85
2022/01/16 13:43:37;;;;;;;87.80;21.42;;;6.40;99.90;;;;;;5040558;28;20203;-84
2022/01/16 13:46:11;;;;;;;88.77;23.97;;;6.30;99.90;;;;;;5021222;28;20227;-85
2022/01/16 13:48:46;;;;;;;91.18;23.20;;;6.30;99.90;;;;;;5022330;28;20408;-85
2022/01/16 13:51:24;;;;;;;90.90;23.95;;;6.30;99.90;;;;;;5040384;28;20169;-84
2022/01/16 13:53:53;;;;;;;89.05;24.42;;;6.40;99.90;;;;;;5040755;28;20520;-84
2022/01/16 13:56:28;;;;;;;92.40;26.98;;;6.30;99.90;;;;;;5040147;28;20157;-85
2022/01/16 13:58:57;;;;;;;87.00;25.45;;;6.40;99.90;;;;;;5040240;28;20142;-84
2022/01/16 14:01:27;;;;;;;88.20;23.60;;;6.40;99.90;;;;;;5021923;28;20176;-84
2022/01/16 14:04:01;;;;;;;88.85;23.00;;;6.40;99.90;;;;;;5022554;28;20169;-84
2022/01/16 14:06:33;;;;;;;87.57;23.20;;;6.50;99.90;;;;;;5039880;28;20149;-84
2022/01/16 14:09:00;;;;;;;88.43;28.33;;;6.50;99.90;;;;;;5022391;28;20166;-84
2022/01/16 14:11:29;;;;;;;83.68;20.98;;;6.40;99.90;;;;;;5021275;28;20176;-85
2022/01/16 14:13:57;;;;;;;87.45;21.35;;;6.40;99.90;;;;;;5022055;28;20211;-85
2022/01/16 14:16:41;;;;;;;89.03;22.35;;;6.40;99.90;;;;;;5039367;28;20172;-85
2022/01/16 14:19:10;;;;;;;85.63;21.50;;;6.40;99.90;;;;;;5040199;28;20157;-85
2022/01/16 14:21:59;;;;;;;90.45;24.63;;;6.50;99.90;;;;;;5039739;28;20252;-84
2022/01/16 14:24:26;;;;;;;87.72;22.25;;;6.40;99.90;;;;;;5039761;28;20548;-84
2022/01/16 14:26:55;;;;;;;83.18;19.75;;;6.40;99.90;;;;;;5039642;28;20180;-85
2022/01/16 14:29:23;;;;;;;86.35;22.67;;;6.40;99.90;;;;;;5039615;28;20212;-85
2022/01/16 14:31:53;;;;;;;86.78;21.98;;;6.40;99.90;;;;;;5039522;28;20146;-85
2022/01/16 14:34:23;;;;;;;84.43;24.63;;;6.30;99.90;;;;;;5021377;28;20189;-85
2022/01/16 14:37:03;;;;;;;90.20;29.02;;;6.20;99.90;;;;;;5022455;28;20177;-85
2022/01/16 14:39:29;;;;;;;93.75;33.35;;;6.20;99.90;;;;;;5022342;28;20176;-85
2022/01/16 14:41:59;;;;;;;92.27;35.03;;;6.20;99.90;;;;;;5039616;28;20169;-84
2022/01/16 14:44:39;;;;;;;95.97;37.92;;;6.10;99.90;;;;;;5021806;28;20485;-84
2022/01/16 14:47:14;;;;;;;100.78;60.30;;;6.10;99.90;;;;;;5039379;28;20177;-85
2022/01/16 14:49:44;;;;;;;93.38;45.95;;;6.00;99.90;;;;;;5038407;28;20176;-85
2022/01/16 14:52:14;;;;;;;97.00;47.65;;;6.00;99.90;;;;;;5021247;28;20161;-84
2022/01/16 14:54:49;;;;;;;98.10;47.50;;;6.00;99.90;;;;;;5020557;28;20268;-84
2022/01/16 14:57:17;;;;;;;105.82;59.47;;;6.00;99.90;;;;;;5024159;28;20502;-85
2022/01/16 14:59:46;;;;;;;105.35;48.55;;;6.00;99.90;;;;;;5025005;28;20184;-84
2022/01/16 15:02:18;;;;;;;98.00;52.60;;;6.00;99.90;;;;;;5025634;28;20203;-85
2022/01/16 15:05:03;;;;;;;92.97;51.10;;;6.00;99.90;;;;;;5024918;28;20242;-85
2022/01/16 15:07:36;;;;;;;98.25;52.47;;;6.00;99.90;;;;;;5025890;28;20203;-85
2022/01/16 15:10:13;;;;;;;104.28;63.80;;;5.90;99.90;;;;;;5042653;28;20648;-84
2022/01/16 15:12:44;;;;;;;96.45;55.47;;;5.90;99.90;;;;;;5022414;28;20657;-85
2022/01/16 15:15:14;;;;;;;101.05;63.80;;;5.80;99.90;;;;;;5042948;28;20529;-84
2022/01/16 15:17:47;;;;;;;99.70;62.40;;;5.80;99.90;;;;;;5043537;28;20166;-84
2022/01/16 15:20:22;;;;;;;97.57;60.10;;;5.80;99.90;;;;;;5024903;28;20184;-84
2022/01/16 15:22:50;;;;;;;99.53;69.63;;;5.80;99.90;;;;;;5042285;28;20203;-85
2022/01/16 15:25:16;;;;;;;97.30;63.55;;;5.70;99.90;;;;;;5013421;28;20193;-84
2022/01/16 15:27:45;;;;;;;99.27;63.60;;;5.70;99.90;;;;;;5038143;28;20188;-84
2022/01/16 15:30:13;;;;;;;100.68;65.30;;;5.70;99.90;;;;;;5024045;28;20463;-84
2022/01/16 15:32:42;;;;;;;98.30;63.95;;;5.70;99.90;;;;;;5025621;28;20165;-84
2022/01/16 15:35:09;;;;;;;102.28;66.03;;;5.70;99.90;;;;;;5043111;28;20184;-84
2022/01/16 15:37:35;;;;;;;99.05;59.85;;;5.70;99.90;;;;;;5025634;28;20188;-84
2022/01/16 15:40:13;;;;;;;98.72;64.03;;;5.70;99.90;;;;;;5043264;28;20165;-84
2022/01/16 15:42:41;;;;;;;97.47;51.60;;;5.70;99.90;;;;;;5042738;28;20489;-84
2022/01/16 15:45:07;;;;;;;97.60;60.25;;;5.70;99.90;;;;;;5042076;28;20215;-84
2022/01/16 15:47:45;;;;;;;101.65;62.78;;;5.70;99.90;;;;;;5042965;28;20161;-84
2022/01/16 15:50:14;;;;;;;106.72;72.22;;;5.70;99.90;;;;;;5025182;28;20193;-85
2022/01/16 15:52:43;;;;;;;94.18;56.75;;;5.60;99.90;;;;;;5024272;28;20169;-83
2022/01/16 15:55:09;;;;;;;98.72;58.38;;;5.70;99.90;;;;;;5041108;28;20178;-82
2022/01/16 15:57:35;;;;;;;98.55;60.45;;;5.70;99.90;;;;;;5041473;28;20629;-82
2022/01/16 16:00:07;;;;;;;100.13;59.93;;;5.70;99.90;;;;;;5041135;28;20196;-84
2022/01/16 16:02:41;;;;;;;104.63;79.40;;;5.60;99.90;;;;;;5023403;28;20998;-83
2022/01/16 16:05:07;;;;;;;103.72;68.38;;;5.60;99.90;;;;;;5041510;28;20196;-85
2022/01/16 16:07:33;;;;;;;105.85;65.90;;;5.60;99.90;;;;;;5022172;28;20525;-83
2022/01/16 16:10:11;;;;;;;103.87;64.53;;;5.70;99.90;;;;;;5040827;28;20187;-83
2022/01/16 16:12:47;;;;;;;98.93;65.40;;;5.70;99.90;;;;;;5040909;28;20149;-82
2022/01/16 16:15:14;;;;;;;99.38;59.90;;;5.70;99.90;;;;;;5041011;28;20234;-83
2022/01/16 16:17:46;;;;;;;104.75;73.50;;;5.70;99.90;;;;;;5041177;28;20163;-83
2022/01/16 16:20:11;;;;;;;108.53;67.47;;;5.60;99.90;;;;;;5040570;28;20529;-83
2022/01/16 16:22:40;;;;;;;101.30;69.33;;;5.60;99.90;;;;;;5041059;28;20169;-83
2022/01/16 16:25:32;;;;;;;108.40;76.38;;;5.60;99.90;;;;;;5022981;28;20442;-85
2022/01/16 16:28:10;;;;;;;102.93;64.30;;;5.60;99.90;;;;;;5022628;28;20639;-83
2022/01/16 16:30:36;;;;;;;102.88;58.95;;;5.60;99.90;;;;;;5023367;28;20207;-83
2022/01/16 16:33:05;;;;;;;104.40;67.33;;;5.60;99.90;;;;;;5041140;28;20621;-83
2022/01/16 16:35:33;;;;;;;105.63;71.03;;;5.60;99.90;;;;;;5022385;28;20185;-83
2022/01/16 16:38:02;;;;;;;102.47;63.95;;;5.60;99.90;;;;;;5040527;28;20609;-83
2022/01/16 16:40:28;;;;;;;111.20;64.45;;;5.60;99.90;;;;;;5023224;28;20575;-83
2022/01/16 16:42:55;;;;;;;112.55;76.35;;;5.60;99.90;;;;;;5022199;28;20620;-83
2022/01/16 16:45:21;;;;;;;109.50;68.75;;;5.60;99.90;;;;;;5040720;28;20197;-83
2022/01/16 16:47:46;;;;;;;101.27;61.33;;;5.60;99.90;;;;;;5040273;28;20231;-83
2022/01/16 16:50:18;;;;;;;104.60;63.17;;;5.60;99.90;;;;;;5022727;28;20443;-83
2022/01/16 16:52:44;;;;;;;102.68;60.95;;;5.60;99.90;;;;;;5040203;28;20172;-84
2022/01/16 16:55:15;;;;;;;99.37;54.27;;;5.60;99.90;;;;;;5023013;28;20236;-83
2022/01/16 16:57:44;;;;;;;100.60;52.40;;;5.60;99.90;;;;;;5043414;28;20479;-83
2022/01/16 17:00:11;;;;;;;109.20;48.47;;;5.60;99.90;;;;;;5041076;28;20240;-83
2022/01/16 17:02:36;;;;;;;101.10;54.28;;;5.50;99.90;;;;;;5041300;28;20165;-83
2022/01/16 17:05:03;;;;;;;95.93;41.10;;;5.60;99.90;;;;;;5040073;28;20181;-83
2022/01/16 17:07:29;;;;;;;93.93;49.10;;;5.60;99.90;;;;;;5022965;28;20169;-83
2022/01/16 17:09:55;;;;;;;93.40;39.27;;;5.60;99.90;;;;;;5021300;28;20188;-83
2022/01/16 17:12:20;;;;;;;90.53;40.17;;;5.60;99.90;;;;;;5022026;28;20636;-84
2022/01/16 17:14:46;;;;;;;100.57;47.83;;;5.60;99.90;;;;;;5039464;28;20240;-82
2022/01/16 17:17:15;;;;;;;94.23;40.97;;;5.60;99.90;;;;;;5039229;28;20162;-82
2022/01/16 17:19:47;;;;;;;92.63;43.42;;;5.60;99.90;;;;;;5021332;28;20169;-82
2022/01/16 17:22:24;;;;;;;94.28;44.78;;;5.60;99.90;;;;;;5022377;28;20173;-83
2022/01/16 17:24:53;;;;;;;100.03;44.33;;;5.60;99.90;;;;;;5039203;28;20246;-83
2022/01/16 17:27:19;;;;;;;93.45;40.90;;;5.50;99.90;;;;;;5039414;28;20188;-83
2022/01/16 17:29:48;;;;;;;92.65;40.10;;;5.50;99.90;;;;;;5038878;28;20187;-83
2022/01/16 17:32:15;;;;;;;103.95;44.60;;;5.50;99.90;;;;;;5021920;28;20560;-83
2022/01/16 17:34:43;;;;;;;103.03;49.20;;;5.60;99.90;;;;;;5038594;28;20189;-83
2022/01/16 17:37:09;;;;;;;96.55;45.97;;;5.70;99.90;;;;;;5021215;28;20177;-83
2022/01/16 17:39:36;;;;;;;104.37;51.57;;;5.70;99.90;;;;;;5038770;28;20664;-83
2022/01/16 17:42:06;;;;;;;96.28;48.17;;;5.70;99.90;;;;;;5039262;28;20415;-83
2022/01/16 17:44:32;;;;;;;98.28;48.55;;;5.70;99.90;;;;;;5020799;28;20188;-83
2022/01/16 17:46:59;;;;;;;100.43;47.00;;;5.70;99.90;;;;;;5021243;28;20250;-83
2022/01/16 17:49:25;;;;;;;94.22;39.90;;;5.70;99.90;;;;;;5020921;28;20192;-83
2022/01/16 17:51:50;;;;;;;97.25;45.47;;;5.70;99.90;;;;;;5021365;28;20172;-83
2022/01/16 17:54:16;;;;;;;99.53;46.17;;;5.70;99.90;;;;;;5021283;28;20332;-83
2022/01/16 17:56:45;;;;;;;95.23;40.60;;;5.70;99.90;;;;;;5039145;28;20406;-83
2022/01/16 17:59:11;;;;;;;103.90;45.70;;;5.70;99.90;;;;;;5039000;28;20176;-84
2022/01/16 18:01:39;;;;;;;100.20;44.97;;;5.70;99.90;;;;;;5021111;28;20192;-83
2022/01/16 18:04:05;;;;;;;102.93;43.10;;;5.70;99.90;;;;;;5039220;28;20197;-83
2022/01/16 18:06:32;;;;;;;91.33;40.27;;;5.70;99.90;;;;;;5020960;28;20176;-84
2022/01/16 18:09:01;;;;;;;93.40;46.92;;;5.70;99.90;;;;;;5038912;28;20529;-83
2022/01/16 18:11:28;;;;;;;95.45;44.53;;;5.70;99.90;;;;;;5020611;28;20196;-83
2022/01/16 18:13:54;;;;;;;97.93;47.00;;;5.60;99.90;;;;;;5039867;28;20157;-83
2022/01/16 18:16:19;;;;;;;105.23;43.73;;;5.60;99.90;;;;;;5044017;28;20199;-84
2022/01/16 18:18:45;;;;;;;100.70;53.00;;;5.60;99.90;;;;;;5039835;28;20161;-83
2022/01/16 18:21:11;;;;;;;97.73;51.43;;;5.60;99.90;;;;;;5039916;28;20260;-83
2022/01/16 18:23:36;;;;;;;100.27;59.43;;;5.60;99.90;;;;;;5039844;28;20177;-83
2022/01/16 18:26:02;;;;;;;100.57;59.93;;;5.60;99.90;;;;;;5038581;28;20430;-83
2022/01/16 18:28:28;;;;;;;107.90;68.23;;;5.60;99.90;;;;;;5038132;28;20177;-83
2022/01/16 18:30:53;;;;;;;104.23;73.37;;;5.60;99.90;;;;;;5037822;28;20612;-83
2022/01/16 18:33:27;;;;;;;107.57;64.60;;;5.60;99.90;;;;;;5020879;28;20256;-83
2022/01/16 18:35:53;;;;;;;101.10;59.03;;;5.60;99.90;;;;;;5038077;28;20186;-83
2022/01/16 18:38:19;;;;;;;110.95;69.75;;;5.60;99.90;;;;;;5038241;28;20161;-83
2022/01/16 18:40:45;;;;;;;108.93;67.33;;;5.60;99.90;;;;;;5020270;28;20165;-83
2022/01/16 18:43:13;;;;;;;103.50;60.00;;;5.60;99.90;;;;;;5038096;28;20407;-83
2022/01/16 18:45:50;;;;;;;127.55;98.60;;;5.60;99.90;;;;;;5020199;28;20432;-83
2022/01/16 18:48:21;;;;;;;109.90;79.95;;;5.60;99.90;;;;;;5009815;28;20514;-83
2022/01/16 18:50:52;;;;;;;115.10;91.82;;;5.60;99.90;;;;;;5017567;28;20647;-83
2022/01/16 18:53:19;;;;;;;109.00;84.03;;;5.60;99.90;;;;;;5017410;28;20160;-83
2022/01/16 18:55:45;;;;;;;108.35;74.90;;;5.60;99.90;;;;;;5034793;28;20181;-83
2022/01/16 18:58:13;;;;;;;110.00;80.90;;;5.60;99.90;;;;;;5038744;28;20644;-83
2022/01/16 19:00:40;;;;;;;109.75;85.70;;;5.60;99.90;;;;;;5020757;28;20264;-83
2022/01/16 19:03:06;;;;;;;116.20;97.45;;;5.60;99.90;;;;;;5038052;28;20521;-83